Time;durP1;ratioP1;P1;durP2;ratioP2;P2;SDS_P1;SDS_P2;PMS_P1;PMS_P2;Temp;Humidity;BMP_temperature;BMP_pressure;BME280_temperature;BME280_humidity;BME280_pressure;Samples;Min_cycle;Max_cycle;Signal;HPM_P1;HPM_P2
2021/12/30 00:00:23;;;;;;;;;0.00;0.00;;;;;16.17;76.95;101364.91;5066988;28;45407;-56
2021/12/30 00:02:49;;;;;;;;;0.00;0.00;;;;;16.16;76.95;101366.69;5079492;28;45401;-57
2021/12/30 00:05:15;;;;;;;;;0.00;0.00;;;;;16.18;77.23;101382.53;5081874;28;45328;-55
2021/12/30 00:07:42;;;;;;;;;0.00;0.00;;;;;16.18;77.30;101379.88;5083155;28;45386;-56
2021/12/30 00:10:09;;;;;;;;;1.00;0.00;;;;;16.19;77.13;101382.44;5083495;28;45215;-55
2021/12/30 00:12:35;;;;;;;;;0.00;0.00;;;;;16.19;77.13;101370.94;5082561;28;45193;-56
2021/12/30 00:15:01;;;;;;;;;3.00;0.00;;;;;16.18;77.06;101378.06;5082850;28;45350;-55
2021/12/30 00:17:26;;;;;;;;;0.25;0.25;;;;;16.17;77.11;101388.81;5082850;28;45321;-56
2021/12/30 00:19:52;;;;;;;;;1.00;0.00;;;;;16.17;77.08;101383.50;5083273;28;45302;-55
2021/12/30 00:22:17;;;;;;;;;0.00;0.00;;;;;16.17;76.95;101380.84;5082756;28;45421;-55
2021/12/30 00:24:43;;;;;;;;;1.50;0.00;;;;;16.17;77.21;101375.53;5082905;28;45449;-56
2021/12/30 00:27:09;;;;;;;;;0.00;0.00;;;;;16.16;77.04;101369.38;5082791;28;45617;-55
2021/12/30 00:29:34;;;;;;;;;0.50;0.50;;;;;16.16;76.97;101379.16;5082550;28;45383;-56
2021/12/30 00:32:00;;;;;;;;;0.00;0.00;;;;;16.10;77.20;101383.09;5082460;28;45428;-55
2021/12/30 00:34:25;;;;;;;;;0.25;0.25;;;;;16.10;77.22;101383.09;5082862;28;45385;-56
2021/12/30 00:36:51;;;;;;;;;0.00;0.00;;;;;16.09;77.13;101381.41;5082821;28;45434;-56
2021/12/30 00:39:16;;;;;;;;;1.00;1.00;;;;;16.12;77.14;101383.00;5081717;28;45378;-56
2021/12/30 00:41:42;;;;;;;;;0.00;0.00;;;;;16.08;77.27;101381.50;5082640;28;45990;-56
2021/12/30 00:44:07;;;;;;;;;1.75;0.00;;;;;16.09;77.33;101389.38;5082414;28;45326;-56
2021/12/30 00:46:33;;;;;;;;;1.00;0.00;;;;;16.10;77.30;101384.91;5082606;28;45208;-55
2021/12/30 00:48:58;;;;;;;;;0.50;0.25;;;;;16.09;77.33;101393.84;5080103;28;45401;-56
2021/12/30 00:51:24;;;;;;;;;0.25;0.25;;;;;16.10;77.21;101393.72;5061945;28;45455;-56
2021/12/30 00:53:49;;;;;;;;;0.00;0.00;;;;;16.11;77.33;101395.41;5062189;28;45224;-56
2021/12/30 00:56:15;;;;;;;;;2.00;0.00;;;;;16.10;77.30;101398.19;5072111;28;45202;-56
2021/12/30 00:58:40;;;;;;;;;0.75;0.75;;;;;16.10;77.41;101398.19;5062394;28;45261;-56
2021/12/30 01:01:06;;;;;;;;;0.00;0.00;;;;;16.10;77.42;101403.50;5069093;27;45624;-56
2021/12/30 01:03:34;;;;;;;;;0.75;0.00;;;;;16.09;77.33;101400.00;5082148;27;45392;-55
2021/12/30 01:06:00;;;;;;;;;0.00;0.00;;;;;16.10;77.41;101398.19;5082279;27;45251;-56
2021/12/30 01:08:26;;;;;;;;;0.00;0.00;;;;;16.10;77.40;101412.31;5082407;28;45524;-56
2021/12/30 01:10:51;;;;;;;;;0.75;0.75;;;;;16.11;77.29;101414.03;5081842;28;46320;-56
2021/12/30 01:13:23;;;;;;;;;1.00;1.00;;;;;16.12;77.54;101422.88;5082036;28;45168;-56
2021/12/30 01:16:01;;;;;;;;;2.00;0.50;;;;;16.12;77.48;101431.69;5081675;28;45381;-55
2021/12/30 01:18:42;;;;;;;;;0.25;0.25;;;;;16.14;77.39;101431.56;5082008;28;45441;-56
2021/12/30 01:21:12;;;;;;;;;0.00;0.00;;;;;16.12;77.26;101437.00;5081769;28;46225;-56
2021/12/30 01:23:41;;;;;;;;;2.00;0.75;;;;;16.10;77.51;101440.72;5081649;28;45248;-56
2021/12/30 01:26:07;;;;;;;;;0.00;0.00;;;;;16.09;77.60;101439.03;5082118;28;46891;-56
2021/12/30 01:28:32;;;;;;;;;1.00;1.00;;;;;16.09;77.66;101439.03;5081473;28;45371;-56
2021/12/30 01:30:58;;;;;;;;;0.00;0.00;;;;;16.09;77.74;101444.34;5081886;28;45264;-56
2021/12/30 01:33:24;;;;;;;;;0.50;0.50;;;;;16.08;77.90;101448.81;5081585;28;45374;-56
2021/12/30 01:35:49;;;;;;;;;0.50;0.50;;;;;16.07;77.91;101448.91;5081998;28;45320;-56
2021/12/30 01:38:16;;;;;;;;;0.00;0.00;;;;;16.06;78.03;101458.69;5082031;28;45437;-57
2021/12/30 01:40:47;;;;;;;;;1.00;0.75;;;;;16.04;78.34;101460.63;5081666;28;45149;-56
2021/12/30 01:43:13;;;;;;;;;0.50;0.00;;;;;16.03;78.29;101463.38;5081374;28;45433;-56
2021/12/30 01:45:41;;;;;;;;;0.75;0.75;;;;;16.04;78.44;101463.28;5081685;28;45311;-56
2021/12/30 01:48:07;;;;;;;;;0.75;0.75;;;;;16.06;78.30;101460.50;5081271;28;45348;-56
2021/12/30 01:50:33;;;;;;;;;1.00;1.00;;;;;16.05;78.33;101453.50;5070876;28;45249;-55
2021/12/30 01:52:59;;;;;;;;;0.50;0.00;;;;;16.04;78.45;101465.09;5077314;28;45216;-56
2021/12/30 01:55:25;;;;;;;;;0.00;0.00;;;;;16.04;78.29;101457.13;5081458;28;45167;-55
2021/12/30 01:57:51;;;;;;;;;1.00;0.00;;;;;16.02;78.40;101456.34;5064086;28;45255;-56
2021/12/30 02:00:21;;;;;;;;;0.25;0.00;;;;;16.03;78.56;101476.66;5065342;28;46210;-56
2021/12/30 02:02:47;;;;;;;;;0.25;0.25;;;;;16.03;78.59;101466.03;5073575;28;45252;-56
2021/12/30 02:05:13;;;;;;;;;0.00;0.00;;;;;16.02;78.64;101464.31;5061233;28;45367;-56
2021/12/30 02:07:39;;;;;;;;;0.00;0.00;;;;;16.02;78.65;101466.97;5061200;28;45150;-56
2021/12/30 02:10:05;;;;;;;;;0.50;0.50;;;;;16.03;78.67;101464.22;5061121;28;45339;-57
2021/12/30 02:12:34;;;;;;;;;0.00;0.00;;;;;16.04;78.67;101468.59;5060458;28;45256;-56
2021/12/30 02:15:01;;;;;;;;;0.50;0.50;;;;;16.03;78.68;101471.34;5061047;28;45248;-56
2021/12/30 02:17:27;;;;;;;;;2.00;0.50;;;;;16.04;78.81;101483.69;5060882;28;45521;-56
2021/12/30 02:20:00;;;;;;;;;1.00;1.00;;;;;16.04;78.83;101489.00;5060724;28;46071;-56
2021/12/30 02:22:26;;;;;;;;;0.00;0.00;;;;;16.03;78.87;101484.63;5060705;28;45315;-56
2021/12/30 02:24:52;;;;;;;;;0.00;0.00;;;;;16.01;78.95;101482.09;5060904;28;45169;-55
2021/12/30 02:27:18;;;;;;;;;1.25;0.50;;;;;16.00;78.84;101480.38;5060843;28;45240;-56
2021/12/30 02:29:44;;;;;;;;;0.00;0.00;;;;;16.00;78.86;101496.34;5073203;28;45455;-55
2021/12/30 02:32:10;;;;;;;;;0.25;0.00;;;;;16.02;78.93;101488.25;5066293;27;45248;-56
2021/12/30 02:34:38;;;;;;;;;0.00;0.00;;;;;16.02;78.92;101490.91;5064557;28;45296;-56
2021/12/30 02:37:04;;;;;;;;;0.25;0.00;;;;;16.02;78.85;101491.75;5064259;28;46215;-55
2021/12/30 02:39:30;;;;;;;;;0.00;0.00;;;;;16.04;78.76;101497.00;5064275;28;45387;-56
2021/12/30 02:41:56;;;;;;;;;1.25;0.00;;;;;16.03;78.82;101492.59;5063966;28;45323;-56
2021/12/30 02:44:22;;;;;;;;;0.00;0.00;;;;;16.02;78.64;101509.50;5064259;28;45318;-56
2021/12/30 02:46:54;;;;;;;;;0.25;0.25;;;;;16.02;78.56;101501.53;5064180;28;45317;-56
2021/12/30 02:49:20;;;;;;;;;0.00;0.00;;;;;16.02;78.54;101510.34;5063890;28;45297;-56
2021/12/30 02:51:46;;;;;;;;;1.00;0.00;;;;;16.03;78.60;101504.06;5070546;28;45291;-55
2021/12/30 02:54:12;;;;;;;;;2.00;0.00;;;;;16.04;78.23;101511.13;5083994;28;45571;-55
2021/12/30 02:56:38;;;;;;;;;0.00;0.00;;;;;16.05;78.36;101517.28;5077876;28;45569;-56
2021/12/30 02:59:04;;;;;;;;;2.00;0.00;;;;;16.07;78.21;101524.19;5066894;28;45420;-56
2021/12/30 03:01:32;;;;;;;;;0.00;0.00;;;;;16.08;78.10;101525.03;5069796;27;45235;-56
2021/12/30 03:04:00;;;;;;;;;0.50;0.00;;;;;16.08;78.11;101522.38;5084225;28;45342;-56
2021/12/30 03:06:27;;;;;;;;;0.00;0.00;;;;;16.05;78.05;101515.47;5084224;28;45476;-57
2021/12/30 03:08:53;;;;;;;;;0.00;0.00;;;;;16.07;78.09;101518.03;5084110;28;46216;-56
2021/12/30 03:11:21;;;;;;;;;1.00;0.00;;;;;16.08;78.10;101520.56;5084040;28;45231;-56
2021/12/30 03:13:47;;;;;;;;;0.50;0.00;;;;;16.09;78.13;101513.44;5083672;28;45550;-56
2021/12/30 03:16:21;;;;;;;;;1.00;0.00;;;;;16.09;77.90;101518.75;5084292;28;45337;-56
2021/12/30 03:18:49;;;;;;;;;0.00;0.00;;;;;16.09;77.82;101516.09;5083623;28;45456;-56
2021/12/30 03:21:17;;;;;;;;;0.00;0.00;;;;;16.09;77.91;101521.41;5083810;28;45264;-56
2021/12/30 03:23:43;;;;;;;;;0.75;0.00;;;;;16.10;77.72;101515.97;5083976;28;45280;-55
2021/12/30 03:26:09;;;;;;;;;0.25;0.00;;;;;16.11;77.75;101517.69;5083952;28;45668;-55
2021/12/30 03:28:36;;;;;;;;;2.00;0.00;;;;;16.12;77.65;101526.53;5083161;28;46398;-56
2021/12/30 03:31:02;;;;;;;;;0.00;0.00;;;;;16.13;77.56;101530.88;5083776;28;45179;-56
2021/12/30 03:33:30;;;;;;;;;0.50;0.00;;;;;16.13;77.55;101533.53;5083656;28;45487;-56
2021/12/30 03:35:59;;;;;;;;;0.00;0.00;;;;;16.14;77.55;101527.25;5083870;28;45381;-56
2021/12/30 03:38:26;;;;;;;;;0.00;0.00;;;;;16.13;77.37;101526.41;5083418;28;45239;-56
2021/12/30 03:40:52;;;;;;;;;1.00;0.00;;;;;16.13;77.52;101520.25;5083431;28;45421;-55
2021/12/30 03:43:17;;;;;;;;;0.00;0.00;;;;;16.13;77.35;101521.09;5083229;28;45421;-55
2021/12/30 03:45:44;;;;;;;;;0.00;0.00;;;;;16.13;77.51;101521.09;5083974;28;45249;-55
2021/12/30 03:48:10;;;;;;;;;1.50;0.00;;;;;16.14;77.10;101527.25;5083177;28;45381;-56
2021/12/30 03:50:43;;;;;;;;;0.00;0.00;;;;;16.13;77.23;101514.94;5067236;28;45327;-61
2021/12/30 03:53:09;;;;;;;;;0.00;0.00;;;;;16.13;77.01;101515.78;5063129;28;45370;-56
2021/12/30 03:55:35;;;;;;;;;0.00;0.00;;;;;16.14;77.15;101509.50;5069408;28;45387;-56
2021/12/30 03:58:00;;;;;;;;;0.00;0.00;;;;;16.16;77.12;101514.72;5065050;28;46008;-55
2021/12/30 04:00:27;;;;;;;;;0.00;0.00;;;;;16.15;77.06;101521.84;5067324;28;45302;-56
2021/12/30 04:02:52;;;;;;;;;0.00;0.00;;;;;16.15;77.06;101518.34;5080195;28;45251;-56
2021/12/30 04:05:19;;;;;;;;;0.00;0.00;;;;;16.16;76.91;101517.38;5083394;28;45253;-56
2021/12/30 04:07:45;;;;;;;;;1.50;0.00;;;;;16.16;76.92;101510.25;5083037;28;45405;-56
2021/12/30 04:10:13;;;;;;;;;0.00;0.00;;;;;16.16;76.98;101517.38;5083267;28;45282;-56
2021/12/30 04:12:39;;;;;;;;;1.00;0.00;;;;;16.16;76.90;101514.72;5082746;28;45362;-56
2021/12/30 04:15:06;;;;;;;;;0.00;0.00;;;;;16.15;76.83;101523.66;5083223;28;45251;-56
2021/12/30 04:17:32;;;;;;;;;2.00;0.00;;;;;16.15;76.80;101518.34;5082588;28;47397;-56
2021/12/30 04:19:57;;;;;;;;;0.00;0.00;;;;;16.16;76.58;101512.91;5083189;28;45294;-56
2021/12/30 04:22:23;;;;;;;;;0.75;0.00;;;;;16.18;76.63;101518.94;5082989;28;45220;-56
2021/12/30 04:24:49;;;;;;;;;0.50;0.00;;;;;16.19;76.63;101522.47;5083055;28;45454;-56
2021/12/30 04:27:14;;;;;;;;;0.50;0.00;;;;;16.21;76.66;101511.75;5082149;28;46022;-55
2021/12/30 04:29:40;;;;;;;;;0.00;0.00;;;;;16.21;76.53;101519.72;5082513;28;45250;-56
2021/12/30 04:32:06;;;;;;;;;0.00;0.00;;;;;16.23;76.55;101521.31;5082764;28;45501;-56
2021/12/30 04:34:32;;;;;;;;;0.00;0.00;;;;;16.25;76.33;101508.75;5083126;28;45199;-56
2021/12/30 04:37:00;;;;;;;;;2.00;0.00;;;;;16.27;76.43;101520.09;5082653;28;45491;-56
2021/12/30 04:39:27;;;;;;;;;0.75;0.00;;;;;16.28;76.27;101508.53;5082739;28;45353;-56
2021/12/30 04:41:53;;;;;;;;;0.00;0.00;;;;;16.30;76.02;101511.09;5082927;28;45294;-56
2021/12/30 04:44:19;;;;;;;;;0.75;0.00;;;;;16.30;76.07;101511.09;5082496;28;45576;-56
2021/12/30 04:46:44;;;;;;;;;0.00;0.00;;;;;16.31;76.24;101516.28;5082284;28;45149;-56
2021/12/30 04:49:10;;;;;;;;;2.00;0.00;;;;;16.33;76.10;101527.66;5078405;28;45172;-56
2021/12/30 04:51:35;;;;;;;;;0.00;0.00;;;;;16.34;76.09;101528.50;5061613;28;45259;-56
2021/12/30 04:54:01;;;;;;;;;3.50;0.00;;;;;16.35;76.02;101530.19;5062347;28;45531;-56
2021/12/30 04:56:26;;;;;;;;;0.00;0.00;;;;;16.35;75.94;101533.75;5070724;28;45209;-56
2021/12/30 04:58:52;;;;;;;;;0.00;0.00;;;;;16.36;75.91;101526.63;5063783;28;45353;-56
2021/12/30 05:01:18;;;;;;;;;0.75;0.00;;;;;16.33;75.67;101532.97;5068513;27;45297;-56
2021/12/30 05:03:44;;;;;;;;;1.00;0.00;;;;;16.32;75.52;101538.41;5082349;28;45364;-55
2021/12/30 05:06:09;;;;;;;;;0.50;0.00;;;;;16.31;75.58;101542.03;5082196;28;45457;-56
2021/12/30 05:08:35;;;;;;;;;0.00;0.00;;;;;16.29;75.54;101547.47;5082403;28;45246;-56
2021/12/30 05:11:00;;;;;;;;;0.00;0.00;;;;;16.26;75.66;101549.47;5082240;28;45323;-55
2021/12/30 05:13:26;;;;;;;;;2.50;1.00;;;;;16.23;75.60;101555.00;5082153;28;45465;-56
2021/12/30 05:15:52;;;;;;;;;2.00;0.00;;;;;16.19;75.61;101552.59;5081923;28;46144;-56
2021/12/30 05:18:19;;;;;;;;;0.75;0.00;;;;;16.14;75.55;101557.34;5081987;28;45305;-56
2021/12/30 05:20:44;;;;;;;;;0.00;0.00;;;;;16.12;75.48;101553.97;5082146;28;45288;-56
2021/12/30 05:23:10;;;;;;;;;2.00;0.00;;;;;16.09;75.54;101532.88;5082118;28;46110;-56
2021/12/30 05:25:36;;;;;;;;;0.00;0.00;;;;;16.06;75.51;101541.09;5081707;28;45459;-56
2021/12/30 05:28:03;;;;;;;;;0.00;0.00;;;;;16.05;75.54;101546.53;5081649;28;45408;-55
2021/12/30 05:30:28;;;;;;;;;0.00;0.00;;;;;16.04;75.59;101542.16;5081627;28;45329;-56
2021/12/30 05:32:56;;;;;;;;;0.00;0.00;;;;;16.04;75.47;101550.13;5081862;28;45534;-55
2021/12/30 05:35:23;;;;;;;;;0.75;0.75;;;;;16.04;75.70;101555.44;5081559;28;46145;-56
2021/12/30 05:37:49;;;;;;;;;2.00;0.00;;;;;16.04;75.45;101555.44;5081813;28;45176;-57
2021/12/30 05:40:18;;;;;;;;;0.00;0.00;;;;;16.04;75.39;101550.13;5081785;28;45287;-57
2021/12/30 05:42:44;;;;;;;;;0.75;0.00;;;;;16.01;75.54;101550.34;5081726;28;45533;-58
2021/12/30 05:45:11;;;;;;;;;1.50;0.00;;;;;15.97;75.57;101555.03;5081444;28;45428;-57
2021/12/30 05:47:37;;;;;;;;;0.00;0.00;;;;;15.90;75.72;101577.66;5081523;28;45243;-57
2021/12/30 05:50:08;;;;;;;;;3.00;0.00;;;;;15.84;75.68;101578.06;5070050;28;45302;-57
2021/12/30 05:52:34;;;;;;;;;1.00;0.00;;;;;15.79;75.98;101581.00;5061207;28;45473;-56
2021/12/30 05:55:00;;;;;;;;;2.50;0.00;;;;;15.74;76.04;101579.66;5062052;28;45419;-56
2021/12/30 05:57:26;;;;;;;;;2.00;1.00;;;;;15.69;76.18;101589.72;5069033;27;45337;-56
2021/12/30 05:59:51;;;;;;;;;1.00;0.00;;;;;15.64;76.31;101595.34;5066293;28;45415;-56
2021/12/30 06:02:17;;;;;;;;;0.00;0.00;;;;;15.60;76.41;101605.28;5073162;27;45433;-56
2021/12/30 06:04:43;;;;;;;;;1.00;0.00;;;;;15.57;76.46;101594.88;5080627;28;45959;-56
2021/12/30 06:07:09;;;;;;;;;1.00;1.00;;;;;15.53;76.77;101593.38;5081265;28;45294;-57
2021/12/30 06:09:35;;;;;;;;;0.75;0.00;;;;;15.49;76.95;101593.69;5081473;28;45235;-56
2021/12/30 06:12:01;;;;;;;;;3.75;0.75;;;;;15.46;76.77;101600.03;5081349;28;45290;-56
2021/12/30 06:14:26;;;;;;;;;2.00;0.00;;;;;15.40;76.85;101600.44;5080715;28;45222;-56
2021/12/30 06:16:52;;;;;;;;;6.00;0.00;;;;;15.37;76.90;101603.28;5081076;28;45336;-57
2021/12/30 06:19:17;;;;;;;;;3.00;1.00;;;;;15.32;76.93;101600.97;5081232;28;45383;-56
2021/12/30 06:21:43;;;;;;;;;1.50;1.50;;;;;15.30;77.14;101600.19;5081359;27;45321;-56
2021/12/30 06:24:08;;;;;;;;;5.25;2.00;;;;;15.28;77.10;101601.25;5080807;28;45987;-55
2021/12/30 06:26:34;;;;;;;;;2.75;1.00;;;;;15.27;77.18;101604.84;5080915;28;45314;-56
2021/12/30 06:28:59;;;;;;;;;3.00;2.00;;;;;15.23;77.07;101603.34;5080647;28;46380;-55
2021/12/30 06:31:25;;;;;;;;;3.25;0.25;;;;;15.19;77.08;101608.00;5081267;28;45255;-56
2021/12/30 06:33:50;;;;;;;;;2.00;0.75;;;;;15.18;77.19;101605.47;5080610;28;46277;-56
2021/12/30 06:36:17;;;;;;;;;4.00;1.00;;;;;15.15;77.05;101610.94;5081119;28;45283;-55
2021/12/30 06:38:43;;;;;;;;;4.25;1.75;;;;;15.13;77.33;101618.16;5080959;28;45456;-57
2021/12/30 06:41:09;;;;;;;;;1.00;1.00;;;;;15.10;77.37;101619.22;5080916;27;45223;-56
2021/12/30 06:43:35;;;;;;;;;3.00;1.00;;;;;15.10;77.33;101623.69;5080410;28;46118;-56
2021/12/30 06:46:04;;;;;;;;;1.75;1.00;;;;;15.07;77.23;101624.69;5080941;28;45294;-56
2021/12/30 06:48:30;;;;;;;;;1.00;0.00;;;;;15.05;77.52;101616.84;5080569;28;45401;-56
2021/12/30 06:50:57;;;;;;;;;4.00;2.00;;;;;15.02;77.53;101622.38;5061864;28;45413;-56
2021/12/30 06:53:24;;;;;;;;;4.25;0.50;;;;;14.99;77.39;101624.34;5060254;28;45421;-57
2021/12/30 06:55:51;;;;;;;;;5.00;0.00;;;;;14.97;77.51;101635.06;5068578;28;45394;-56
2021/12/30 06:58:19;;;;;;;;;1.25;1.00;;;;;14.96;77.44;101621.91;5060398;28;45568;-56
2021/12/30 07:00:44;;;;;;;;;2.25;1.00;;;;;14.94;77.43;101629.13;5064405;28;45400;-56
2021/12/30 07:03:10;;;;;;;;;6.00;3.25;;;;;14.93;77.57;101638.88;5079876;28;47545;-56
2021/12/30 07:05:36;;;;;;;;;0.00;0.00;;;;;14.92;77.69;101641.59;5080701;28;45409;-56
2021/12/30 07:08:01;;;;;;;;;1.25;1.00;;;;;14.90;77.62;101646.16;5080714;28;45384;-56
2021/12/30 07:10:27;;;;;;;;;3.00;1.00;;;;;14.90;77.54;101647.00;5080966;28;45347;-56
2021/12/30 07:12:53;;;;;;;;;2.25;1.00;;;;;14.90;77.21;101651.47;5080178;27;46135;-56
2021/12/30 07:15:19;;;;;;;;;1.50;1.00;;;;;14.87;77.41;101647.22;5082423;27;45512;-56
2021/12/30 07:17:44;;;;;;;;;1.25;1.25;;;;;14.86;77.49;101652.63;5083879;28;45450;-57
2021/12/30 07:20:11;;;;;;;;;3.75;3.00;;;;;14.87;77.42;101656.97;5084081;28;45456;-56
2021/12/30 07:22:37;;;;;;;;;4.75;2.75;;;;;14.88;77.23;101656.88;5083756;28;46118;-56
2021/12/30 07:25:03;;;;;;;;;1.00;0.00;;;;;14.89;77.30;101655.91;5083491;28;45479;-56
2021/12/30 07:27:29;;;;;;;;;4.50;2.00;;;;;14.91;77.43;101654.00;5083782;27;45285;-57
2021/12/30 07:29:55;;;;;;;;;3.25;1.25;;;;;14.92;77.35;101661.00;5083760;28;45300;-56
2021/12/30 07:32:20;;;;;;;;;3.75;1.75;;;;;14.94;77.08;101666.25;5083607;28;46119;-56
2021/12/30 07:34:46;;;;;;;;;3.75;1.00;;;;;14.98;77.05;101668.59;5083717;28;45264;-57
2021/12/30 07:37:16;;;;;;;;;5.50;2.00;;;;;15.00;76.75;101676.47;5083724;28;45252;-56
2021/12/30 07:39:42;;;;;;;;;3.75;0.25;;;;;15.04;76.58;101673.53;5083636;28;46060;-56
2021/12/30 07:42:08;;;;;;;;;4.75;3.75;;;;;15.06;76.53;101676.94;5083319;28;46219;-57
2021/12/30 07:44:33;;;;;;;;;2.25;2.00;;;;;15.09;76.35;101673.25;5083562;28;45405;-56
2021/12/30 07:46:59;;;;;;;;;6.75;2.00;;;;;15.13;76.31;101684.50;5061889;28;45324;-57
2021/12/30 07:49:24;;;;;;;;;2.00;1.50;;;;;15.15;76.25;101679.94;5070297;28;45377;-56
2021/12/30 07:51:50;;;;;;;;;4.25;2.00;;;;;15.17;76.12;101691.34;5063066;28;46356;-57
2021/12/30 07:54:15;;;;;;;;;3.75;1.00;;;;;15.17;75.81;101684.22;5063172;28;45350;-57
2021/12/30 07:56:41;;;;;;;;;4.75;1.50;;;;;15.17;75.65;101694.84;5072589;28;45497;-55
2021/12/30 07:59:07;;;;;;;;;6.25;1.50;;;;;15.20;75.78;101694.66;5066956;28;45467;-56
2021/12/30 08:01:32;;;;;;;;;4.25;2.00;;;;;15.22;75.63;101697.19;5064937;28;46213;-57
2021/12/30 08:03:58;;;;;;;;;7.00;2.00;;;;;15.24;75.68;101708.56;5075961;28;45297;-56
2021/12/30 08:06:26;;;;;;;;;3.75;2.50;;;;;15.27;75.43;101721.66;5083131;28;45161;-57
2021/12/30 08:08:52;;;;;;;;;4.50;3.25;;;;;15.29;75.50;101725.06;5083219;28;45572;-57
2021/12/30 08:11:17;;;;;;;;;3.00;2.00;;;;;15.30;75.40;101729.41;5082845;28;46115;-56
2021/12/30 08:13:43;;;;;;;;;6.50;2.00;;;;;15.29;75.16;101723.25;5082886;28;45341;-57
2021/12/30 08:16:08;;;;;;;;;5.00;3.00;;;;;15.30;74.95;101738.22;5082887;28;45413;-57
2021/12/30 08:18:34;;;;;;;;;7.00;4.00;;;;;15.30;74.93;101740.03;5083031;28;46195;-57
2021/12/30 08:21:00;;;;;;;;;5.00;3.00;;;;;15.30;75.03;101746.19;5082815;28;45510;-56
2021/12/30 08:23:25;;;;;;;;;4.75;2.00;;;;;15.31;75.03;101747.88;5082785;28;45335;-56
2021/12/30 08:25:51;;;;;;;;;4.50;2.50;;;;;15.33;74.69;101742.50;5082015;28;45380;-57
2021/12/30 08:28:21;;;;;;;;;3.25;2.00;;;;;15.33;74.83;101747.81;5082706;28;45303;-57
2021/12/30 08:30:46;;;;;;;;;4.25;1.75;;;;;15.31;74.82;101755.84;5082433;28;45275;-56
2021/12/30 08:33:12;;;;;;;;;2.75;2.00;;;;;15.32;74.84;101749.63;5082260;28;45222;-56
2021/12/30 08:35:38;;;;;;;;;3.00;2.50;;;;;15.34;74.78;101755.69;5082679;28;45294;-56
2021/12/30 08:38:04;;;;;;;;;4.00;3.00;;;;;15.36;74.60;101764.41;5082531;28;45647;-56
2021/12/30 08:40:30;;;;;;;;;3.50;2.25;;;;;15.38;74.45;101766.94;5082571;28;46250;-56
2021/12/30 08:42:56;;;;;;;;;6.00;1.75;;;;;15.41;74.33;101768.56;5082547;28;45356;-56
2021/12/30 08:45:22;;;;;;;;;9.50;2.00;;;;;15.42;74.56;101772.94;5082574;28;45383;-55
2021/12/30 08:47:48;;;;;;;;;3.50;3.25;;;;;15.43;74.42;101775.50;5082667;28;45420;-56
2021/12/30 08:50:15;;;;;;;;;3.00;2.00;;;;;15.44;74.23;101779.00;5069126;28;45367;-57
2021/12/30 08:52:43;;;;;;;;;4.00;2.00;;;;;15.45;74.41;101783.34;5061997;28;45235;-56
2021/12/30 08:55:10;;;;;;;;;6.00;2.00;;;;;15.45;74.36;101775.38;5068839;28;45429;-57
2021/12/30 08:57:40;;;;;;;;;1.75;1.75;;;;;15.45;74.15;101781.53;5067942;27;45435;-56
2021/12/30 09:00:09;;;;;;;;;2.00;1.75;;;;;15.47;74.10;101776.97;5065959;28;45401;-57
2021/12/30 09:02:34;;;;;;;;;4.00;2.00;;;;;15.47;74.31;101771.66;5076470;28;45296;-56
2021/12/30 09:05:00;;;;;;;;;3.50;1.50;;;;;15.49;74.23;101772.44;5082341;28;45450;-56
2021/12/30 09:07:25;;;;;;;;;5.00;1.75;;;;;15.48;74.23;101773.41;5082270;28;45239;-56
2021/12/30 09:09:51;;;;;;;;;3.75;2.50;;;;;15.47;74.14;101782.28;5082191;28;45898;-57
2021/12/30 09:12:24;;;;;;;;;3.00;2.75;;;;;15.49;74.29;101779.56;5081945;28;45377;-57
2021/12/30 09:14:49;;;;;;;;;3.25;3.25;;;;;15.50;74.34;101778.63;5082295;28;45354;-56
2021/12/30 09:17:15;;;;;;;;;5.00;3.25;;;;;15.55;74.21;101787.13;5081805;28;45520;-56
2021/12/30 09:19:40;;;;;;;;;6.75;3.00;;;;;15.59;73.95;101793.97;5081996;28;45981;-57
2021/12/30 09:22:06;;;;;;;;;10.75;3.00;;;;;15.60;74.18;101788.53;5081861;28;45306;-56
2021/12/30 09:24:31;;;;;;;;;7.00;3.00;;;;;15.62;73.88;101785.81;5082174;28;45252;-56
2021/12/30 09:26:57;;;;;;;;;7.25;4.00;;;;;15.64;73.88;101797.22;5081944;28;45393;-56
2021/12/30 09:29:22;;;;;;;;;6.50;2.00;;;;;15.67;73.93;101799.66;5081534;28;45477;-56
2021/12/30 09:31:50;;;;;;;;;2.25;2.00;;;;;15.67;73.85;101799.66;5081712;28;45176;-56
2021/12/30 09:34:17;;;;;;;;;5.00;2.00;;;;;15.68;73.73;101800.53;5081871;28;45329;-56
2021/12/30 09:36:43;;;;;;;;;2.25;2.00;;;;;15.70;73.51;101802.13;5081664;28;45473;-56
2021/12/30 09:39:11;;;;;;;;;2.75;1.50;;;;;15.71;73.79;101800.31;5081400;28;45414;-56
2021/12/30 09:41:44;;;;;;;;;4.50;2.00;;;;;15.71;73.55;101808.28;5081532;28;45485;-57
2021/12/30 09:44:11;;;;;;;;;5.25;2.00;;;;;15.71;73.71;101803.81;5081536;28;45617;-56
2021/12/30 09:46:36;;;;;;;;;4.50;2.00;;;;;15.73;73.43;101809.91;5081758;28;45256;-57
2021/12/30 09:49:07;;;;;;;;;5.00;3.00;;;;;15.74;73.68;101802.78;5078405;28;45386;-57
2021/12/30 09:51:35;;;;;;;;;4.50;1.25;;;;;15.80;73.38;101811.22;5061117;28;45279;-56
2021/12/30 09:54:01;;;;;;;;;2.50;2.00;;;;;15.85;73.42;101810.91;5061072;28;45326;-56
2021/12/30 09:56:27;;;;;;;;;10.75;2.00;;;;;15.88;73.27;101811.59;5070416;28;45322;-56
2021/12/30 09:58:53;;;;;;;;;3.50;3.00;;;;;15.91;73.11;101819.34;5062846;28;45281;-57
2021/12/30 10:01:19;;;;;;;;;9.75;4.50;;;;;15.95;72.98;101817.34;5063320;27;45360;-57
2021/12/30 10:03:46;;;;;;;;;4.75;2.00;;;;;15.97;72.88;101812.78;5061082;28;45399;-55
2021/12/30 10:06:14;;;;;;;;;4.75;1.75;;;;;15.98;72.81;101816.31;5060965;28;45406;-56
2021/12/30 10:08:55;;;;;;;;;9.25;4.00;;;;;15.97;72.93;101818.09;5060929;28;46157;-56
2021/12/30 10:11:21;;;;;;;;;4.00;2.25;;;;;15.97;72.79;101823.44;5067982;28;45437;-56
2021/12/30 10:13:59;;;;;;;;;5.25;1.75;;;;;16.01;72.84;101821.41;5081017;28;45436;-57
2021/12/30 10:16:25;;;;;;;;;7.25;4.25;;;;;16.02;72.79;101826.63;5081348;28;45321;-56
2021/12/30 10:19:02;;;;;;;;;3.00;2.00;;;;;16.07;72.77;101819.22;5080826;28;45414;-56
2021/12/30 10:21:37;;;;;;;;;7.50;2.00;;;;;16.15;72.80;101821.38;5081213;28;45334;-55
2021/12/30 10:24:05;;;;;;;;;4.25;2.00;;;;;16.19;72.57;101817.53;5081157;28;45305;-57
2021/12/30 10:26:46;;;;;;;;;5.25;3.00;;;;;16.25;72.38;101826.94;5081295;28;45165;-55
2021/12/30 10:29:11;;;;;;;;;4.75;3.75;;;;;16.27;72.27;101828.53;5080462;28;45481;-55
2021/12/30 10:31:40;;;;;;;;;5.50;2.00;;;;;16.31;72.41;101839.81;5081030;28;45290;-57
2021/12/30 10:34:09;;;;;;;;;4.00;4.00;;;;;16.35;72.23;101828.91;5081086;28;45194;-55
2021/12/30 10:36:43;;;;;;;;;8.50;5.00;;;;;16.39;72.21;101829.53;5080906;28;45484;-55
2021/12/30 10:39:27;;;;;;;;;4.00;3.00;;;;;16.43;72.28;101839.00;5080973;28;45350;-56
2021/12/30 10:42:10;;;;;;;;;5.25;3.50;;;;;16.44;71.94;101828.28;5080589;28;45488;-56
2021/12/30 10:45:04;;;;;;;;;8.75;2.50;;;;;16.44;71.90;101822.97;5080758;28;45243;-55
2021/12/30 10:47:34;;;;;;;;;6.50;2.25;;;;;16.44;72.11;101820.31;5078879;28;45458;-54
2021/12/30 10:50:03;;;;;;;;;6.00;3.00;;;;;16.47;71.44;101814.78;5071074;28;45315;-55
2021/12/30 10:52:30;;;;;;;;;2.50;2.00;;;;;16.43;71.58;101823.03;5063782;28;45241;-55
2021/12/30 10:54:57;;;;;;;;;3.75;1.50;;;;;16.41;71.82;101823.16;5064395;28;45344;-55
2021/12/30 10:57:28;;;;;;;;;3.25;2.25;;;;;16.44;71.93;101817.66;5071080;27;45306;-55
2021/12/30 10:59:54;;;;;;;;;8.25;2.75;;;;;16.47;71.48;101822.75;5067555;28;45955;-54
2021/12/30 11:02:22;;;;;;;;;4.00;2.25;;;;;16.48;71.61;101811.16;5076440;28;45485;-55
2021/12/30 11:04:56;;;;;;;;;2.75;2.00;;;;;16.51;71.55;101815.44;5084172;28;45325;-55
2021/12/30 11:07:42;;;;;;;;;1.75;1.25;;;;;16.50;71.49;101818.16;5084124;28;45406;-55
2021/12/30 11:10:09;;;;;;;;;2.00;2.00;;;;;16.53;71.81;101816.19;5083888;28;45431;-56
2021/12/30 11:12:38;;;;;;;;;6.50;5.00;;;;;16.59;71.83;101828.19;5083598;28;45330;-54
2021/12/30 11:15:23;;;;;;;;;7.50;3.00;;;;;16.63;71.47;101819.91;5082639;28;45439;-54
2021/12/30 11:17:50;;;;;;;;;2.50;2.25;;;;;16.68;71.39;101822.28;5084015;28;45226;-55
2021/12/30 11:20:18;;;;;;;;;3.50;2.25;;;;;16.66;71.46;101834.81;5083698;28;45473;-54
2021/12/30 11:22:44;;;;;;;;;3.25;1.75;;;;;16.67;71.50;101831.22;5083778;28;45646;-55